createdAt,value
2022-10-21T00:00:30.851Z,98213.44
2022-10-21T00:02:58.288Z,98213.38
2022-10-21T00:05:24.740Z,98220.41
2022-10-21T00:07:51.257Z,98201.56
2022-10-21T00:10:17.787Z,98197.97
2022-10-21T00:12:44.241Z,98175.50
2022-10-21T00:15:11.162Z,98146.22
2022-10-21T00:17:39.540Z,98146.09
2022-10-21T00:20:07.153Z,98144.31
2022-10-21T00:22:34.046Z,98156.56
2022-10-21T00:25:00.715Z,98175.78
2022-10-21T00:27:27.807Z,98172.97
2022-10-21T00:29:54.250Z,98162.75
2022-10-21T00:32:20.740Z,98162.03
2022-10-21T00:34:47.302Z,98151.69
2022-10-21T00:37:14.927Z,98148.25
2022-10-21T00:39:41.603Z,98143.09
2022-10-21T00:42:15.441Z,98134.63
2022-10-21T00:44:42.266Z,98128.44
2022-10-21T00:47:16.026Z,98132.88
2022-10-21T00:49:57.962Z,98133.09
2022-10-21T00:52:25.306Z,98148.72
2022-10-21T00:54:55.454Z,98145.13
2022-10-21T00:57:23.619Z,98142.66
2022-10-21T00:59:57.852Z,98124.69
2022-10-21T01:02:24.328Z,98099.50
2022-10-21T01:04:57.535Z,98089.19
2022-10-21T01:07:24.420Z,98097.13
2022-10-21T01:09:51.180Z,98108.53
2022-10-21T01:13:01.456Z,98119.94
2022-10-21T01:15:37.207Z,98109.53
2022-10-21T01:18:17.333Z,98106.31
2022-10-21T01:21:18.807Z,98102.16
2022-10-21T01:23:57.239Z,98094.59
2022-10-21T01:26:55.952Z,98084.16
2022-10-21T01:29:37.460Z,98077.47
2022-10-21T01:32:12.946Z,98068.38
2022-10-21T01:34:41.934Z,98067.75
2022-10-21T01:37:54.715Z,98065.41
2022-10-21T01:40:26.579Z,98062.19
2022-10-21T01:42:57.034Z,98073.50
2022-10-21T01:45:28.354Z,98066.81
2022-10-21T01:47:59.559Z,98076.19
2022-10-21T01:50:28.634Z,98061.72
2022-10-21T01:52:59.849Z,98059.53
2022-10-21T01:55:31.588Z,98063.72
2022-10-21T01:58:12.141Z,98059.59
2022-10-21T02:00:41.541Z,98046.47
2022-10-21T02:03:13.621Z,98055.16
2022-10-21T02:05:40.566Z,98050.22
2022-10-21T02:08:07.537Z,98050.28
2022-10-21T02:10:39.994Z,98066.69
2022-10-21T02:13:10.749Z,98059.84
2022-10-21T02:15:39.002Z,98056.56
2022-10-21T02:18:08.665Z,98063.53
2022-10-21T02:20:40.828Z,98076.53
2022-10-21T02:23:11.099Z,98073.03
2022-10-21T02:25:40.569Z,98080.03
2022-10-21T02:28:07.908Z,98077.41
2022-10-21T02:31:12.995Z,98081.03
2022-10-21T02:33:57.935Z,98074.31
2022-10-21T02:36:34.974Z,98073.59
2022-10-21T02:39:10.046Z,98073.53
2022-10-21T02:41:39.102Z,98068.81
2022-10-21T02:44:06.992Z,98074.63
2022-10-21T02:46:44.496Z,98074.88
2022-10-21T02:49:10.978Z,98074.03
2022-10-21T02:51:37.522Z,98061.91
2022-10-21T02:54:03.949Z,98060.19
2022-10-21T02:59:02.010Z,98056.16
2022-10-21T03:01:28.591Z,98064.97
2022-10-21T03:03:55.066Z,98045.28
2022-10-21T03:06:21.529Z,98050.50
2022-10-21T03:08:47.993Z,98052.41
2022-10-21T03:11:14.442Z,98042.72
2022-10-21T03:13:40.904Z,98039.19
2022-10-21T03:16:07.830Z,98028.84
2022-10-21T03:18:34.308Z,98024.78
2022-10-21T03:21:00.717Z,98023.06
2022-10-21T03:23:27.170Z,98024.63
2022-10-21T03:25:53.605Z,98000.84
2022-10-21T03:28:20.099Z,97996.59
2022-10-21T03:30:46.524Z,97987.06
2022-10-21T03:33:13.067Z,97985.28
2022-10-21T03:35:39.524Z,97975.97
2022-10-21T03:38:06.054Z,97960.50
2022-10-21T03:40:32.506Z,97966.53
2022-10-21T03:42:59.381Z,97964.66
2022-10-21T03:45:26.785Z,97962.13
2022-10-21T03:47:53.262Z,97982.91
2022-10-21T03:50:23.786Z,97982.00
2022-10-21T03:52:52.783Z,97975.78
2022-10-21T03:55:20.910Z,97976.66
2022-10-21T03:57:48.036Z,97975.78
2022-10-21T04:00:14.801Z,97962.97
2022-10-21T04:02:41.477Z,97966.44
2022-10-21T04:05:08.994Z,97977.72
2022-10-21T04:07:35.462Z,97971.44
2022-10-21T04:10:01.916Z,97969.81
2022-10-21T04:12:28.323Z,97978.31
2022-10-21T04:14:54.721Z,97976.59
2022-10-21T04:17:21.156Z,97978.22
2022-10-21T04:19:47.655Z,97970.59
2022-10-21T04:22:14.252Z,97967.19
2022-10-21T04:24:40.652Z,97962.84
2022-10-21T04:27:07.080Z,97959.50
2022-10-21T04:29:33.505Z,97952.53
2022-10-21T04:31:59.934Z,97949.03
2022-10-21T04:34:32.454Z,97938.75
2022-10-21T04:37:01.171Z,97943.69
2022-10-21T04:39:30.726Z,97931.63
2022-10-21T04:41:57.326Z,97923.66
2022-10-21T04:44:23.834Z,97906.31
2022-10-21T04:46:50.807Z,97902.56
2022-10-21T04:49:17.290Z,97903.34
2022-10-21T04:51:43.905Z,97892.56
2022-10-21T04:54:10.487Z,97881.13
2022-10-21T04:56:36.959Z,97886.94
2022-10-21T04:59:03.507Z,97870.38
2022-10-21T05:01:30.011Z,97875.91
2022-10-21T05:03:58.490Z,97874.03
2022-10-21T05:06:24.812Z,97881.06
2022-10-21T05:08:51.305Z,97885.41
2022-10-21T05:11:17.725Z,97888.81
2022-10-21T05:13:45.146Z,97898.88
2022-10-21T05:16:11.637Z,97897.88
2022-10-21T05:18:38.121Z,97880.69
2022-10-21T05:21:04.946Z,97890.94
2022-10-21T05:23:31.802Z,97892.56
2022-10-21T05:25:58.235Z,97882.31
2022-10-21T05:28:25.217Z,97883.34
2022-10-21T05:30:52.788Z,97882.44
2022-10-21T05:33:19.213Z,97883.22
2022-10-21T05:35:54.607Z,97887.41
2022-10-21T05:38:21.073Z,97888.22
2022-10-21T05:40:47.882Z,97895.03
2022-10-21T05:43:14.277Z,97900.13
2022-10-21T05:45:40.700Z,97893.13
2022-10-21T05:48:07.150Z,97890.53
2022-10-21T05:50:33.915Z,97899.19
2022-10-21T05:53:00.369Z,97898.41
2022-10-21T05:55:26.928Z,97894.28
2022-10-21T05:57:53.405Z,97897.50
2022-10-21T06:00:20.153Z,97900.06
2022-10-21T06:02:46.580Z,97897.38
2022-10-21T06:05:13.159Z,97896.47
2022-10-21T06:07:39.892Z,97899.06
2022-10-21T06:10:07.149Z,97899.84
2022-10-21T06:12:33.593Z,97910.75
2022-10-21T06:15:00.163Z,97919.13
2022-10-21T06:17:26.598Z,97916.22
2022-10-21T06:19:53.148Z,97915.13
2022-10-21T06:22:19.587Z,97917.41
2022-10-21T06:24:46.529Z,97914.63
2022-10-21T06:27:13.788Z,97924.66
2022-10-21T06:29:40.243Z,97915.81
2022-10-21T06:32:06.769Z,97917.22
2022-10-21T06:34:33.268Z,97917.03
2022-10-21T06:36:59.697Z,97929.72
2022-10-21T06:39:26.177Z,97932.84
2022-10-21T06:41:52.595Z,97936.88
2022-10-21T06:44:19.036Z,97937.47
2022-10-21T06:46:45.432Z,97940.72
2022-10-21T06:49:11.983Z,97948.28
2022-10-21T06:51:38.411Z,97944.59
2022-10-21T06:54:04.868Z,97954.59
2022-10-21T06:56:31.866Z,97944.03
2022-10-21T06:58:58.961Z,97955.03
2022-10-21T07:01:40.812Z,97949.66
2022-10-21T07:04:09.141Z,97965.03
2022-10-21T07:06:36.583Z,97956.25
2022-10-21T07:09:04.575Z,97962.00
2022-10-21T07:11:31.103Z,97942.06
2022-10-21T07:13:57.525Z,97942.97
2022-10-21T07:16:26.899Z,97939.97
2022-10-21T07:18:53.922Z,97941.63
2022-10-21T07:21:22.087Z,97933.72
2022-10-21T07:23:54.740Z,97942.06
2022-10-21T07:26:24.518Z,97930.09
2022-10-21T07:28:52.251Z,97912.75
2022-10-21T07:31:20.213Z,97925.84
2022-10-21T07:33:47.725Z,97935.91
2022-10-21T07:36:20.761Z,97941.69
2022-10-21T07:38:49.293Z,97953.31
2022-10-21T07:41:18.149Z,97955.81
2022-10-21T07:43:45.263Z,97951.59
2022-10-21T07:46:11.729Z,97969.34
2022-10-21T07:48:38.472Z,97967.94
2022-10-21T07:51:07.989Z,97967.28
2022-10-21T07:53:34.794Z,97957.78
2022-10-21T07:56:11.028Z,97950.72
2022-10-21T07:58:37.841Z,97962.53
2022-10-21T08:01:06.586Z,97957.50
2022-10-21T08:03:33.744Z,97950.00
2022-10-21T08:06:00.794Z,97945.88
2022-10-21T08:08:27.443Z,97942.88
2022-10-21T08:10:55.376Z,97945.31
2022-10-21T08:13:21.988Z,97947.72
2022-10-21T08:15:51.464Z,97957.06
2022-10-21T08:18:18.364Z,97962.25
2022-10-21T08:20:46.471Z,97961.28
2022-10-21T08:23:14.999Z,97962.91
2022-10-21T08:25:57.117Z,97968.69
2022-10-21T08:28:25.445Z,97966.63
2022-10-21T08:30:51.836Z,97972.47
2022-10-21T08:33:18.871Z,97975.63
2022-10-21T08:35:45.318Z,97978.69
2022-10-21T08:38:11.987Z,97975.03
2022-10-21T08:40:41.589Z,97976.25
2022-10-21T08:43:10.504Z,97970.13
2022-10-21T08:45:48.641Z,97967.47
2022-10-21T08:48:20.560Z,97969.16
2022-10-21T08:50:50.724Z,97970.91
2022-10-21T08:53:29.979Z,97961.16
2022-10-21T08:56:06.843Z,97962.44
2022-10-21T08:58:33.938Z,97964.47
2022-10-21T09:01:18.926Z,97959.22
2022-10-21T09:04:04.183Z,97957.31
2022-10-21T09:06:53.549Z,97953.75
2022-10-21T09:09:20.480Z,97932.31
2022-10-21T09:12:17.711Z,97933.41
2022-10-21T09:15:11.367Z,97929.06
2022-10-21T09:17:58.980Z,97932.28
2022-10-21T09:20:38.607Z,97934.00
2022-10-21T09:23:50.662Z,97927.22
2022-10-21T09:26:36.934Z,97926.31
2022-10-21T09:29:17.146Z,97916.34
2022-10-21T09:31:44.602Z,97922.91
2022-10-21T09:34:43.432Z,97921.50
2022-10-21T09:37:40.471Z,97933.09
2022-10-21T09:40:19.255Z,97932.84
2022-10-21T09:42:49.403Z,97939.78
2022-10-21T09:45:37.517Z,97938.84
2022-10-21T09:48:10.068Z,97937.66
2022-10-21T09:50:37.707Z,97953.81
2022-10-21T09:53:17.080Z,97969.28
2022-10-21T09:55:47.209Z,97948.22
2022-10-21T09:58:26.684Z,97938.47
2022-10-21T10:00:53.613Z,97940.63
2022-10-21T10:03:52.874Z,97940.31
2022-10-21T10:06:36.336Z,97932.78
2022-10-21T10:09:14.596Z,97942.84
2022-10-21T10:11:56.521Z,97964.00
2022-10-21T10:14:25.021Z,97962.94
2022-10-21T10:16:51.506Z,97965.53
2022-10-21T10:19:21.250Z,97960.84
2022-10-21T10:22:10.216Z,97962.16
2022-10-21T10:24:40.422Z,97952.69
2022-10-21T10:27:14.557Z,97939.88
2022-10-21T10:29:42.553Z,97932.56
2022-10-21T10:32:15.330Z,97930.28
2022-10-21T10:35:03.211Z,97921.38
2022-10-21T10:37:34.623Z,97897.97
2022-10-21T10:40:04.386Z,97902.91
2022-10-21T10:42:37.650Z,97898.72
2022-10-21T10:45:14.363Z,97893.59
2022-10-21T10:47:48.364Z,97879.28
2022-10-21T10:50:46.890Z,97880.72
2022-10-21T10:53:36.049Z,97870.69
2022-10-21T10:56:06.491Z,97859.31
2022-10-21T10:58:36.720Z,97858.47
2022-10-21T11:01:12.901Z,97866.25
2022-10-21T11:04:11.435Z,97871.56
2022-10-21T11:06:48.087Z,97902.75
2022-10-21T11:09:15.807Z,97949.34
2022-10-21T11:11:46.295Z,97982.66
2022-10-21T11:14:17.786Z,97991.53
2022-10-21T11:17:00.020Z,97988.78
2022-10-21T11:19:57.991Z,97993.03
2022-10-21T11:25:42.778Z,97969.69
2022-10-21T11:28:38.727Z,97978.31
2022-10-21T11:31:17.315Z,97990.13
2022-10-21T11:34:13.747Z,97996.16
2022-10-21T11:37:10.444Z,97993.56
2022-10-21T11:39:57.113Z,97988.75
2022-10-21T11:42:29.041Z,97970.53
2022-10-21T11:45:35.702Z,97960.91
2022-10-21T11:48:40.555Z,97968.38
2022-10-21T11:51:22.280Z,97972.28
2022-10-21T11:54:13.304Z,97966.75
2022-10-21T11:56:50.399Z,97965.53
2022-10-21T11:59:52.475Z,97965.53
2022-10-21T12:02:34.761Z,97971.69
2022-10-21T12:05:24.499Z,97979.78
2022-10-21T12:08:06.073Z,97975.44
2022-10-21T12:10:38.510Z,97977.28
2022-10-21T12:13:27.862Z,97975.44
2022-10-21T12:15:59.524Z,97978.09
2022-10-21T12:18:29.674Z,97969.53
2022-10-21T12:20:58.547Z,97977.47
2022-10-21T12:23:28.786Z,97979.84
2022-10-21T12:26:26.679Z,97978.41
2022-10-21T12:29:18.542Z,97982.72
2022-10-21T12:32:11.544Z,97981.81
2022-10-21T12:34:38.865Z,97981.59
2022-10-21T12:37:43.714Z,97986.56
2022-10-21T12:40:27.858Z,97983.19
2022-10-21T12:43:00.880Z,97975.13
2022-10-21T12:45:28.551Z,97969.03
2022-10-21T12:47:56.181Z,97967.25
2022-10-21T12:50:30.878Z,97960.25
2022-10-21T12:53:15.804Z,97949.56
2022-10-21T12:55:50.352Z,97957.88
2022-10-21T12:58:39.355Z,97956.47
2022-10-21T13:01:27.270Z,97952.59
2022-10-21T13:03:55.810Z,97954.50
2022-10-21T13:06:48.381Z,97956.59
2022-10-21T13:09:39.852Z,97955.63
2022-10-21T13:12:09.247Z,97941.22
2022-10-21T13:14:48.967Z,97945.09
2022-10-21T13:17:25.463Z,97935.38
2022-10-21T13:19:53.358Z,97933.47
2022-10-21T13:22:40.835Z,97929.19
2022-10-21T13:25:23.002Z,97932.38
2022-10-21T13:28:17.786Z,97924.81
2022-10-21T13:30:59.673Z,97927.09
2022-10-21T13:33:29.918Z,97937.06
2022-10-21T13:36:04.058Z,97934.38
2022-10-21T13:38:33.549Z,97919.22
2022-10-21T13:41:27.584Z,97915.44
2022-10-21T13:43:57.135Z,97935.03
2022-10-21T13:46:31.000Z,97930.53
2022-10-21T13:49:00.961Z,97921.69
2022-10-21T13:51:33.782Z,97918.69
2022-10-21T13:54:09.946Z,97917.44
2022-10-21T13:56:38.304Z,97919.09
2022-10-21T13:59:06.502Z,97914.06
2022-10-21T14:01:49.595Z,97906.81
2022-10-21T14:04:21.511Z,97910.72
2022-10-21T14:06:56.890Z,97915.66
2022-10-21T14:09:33.289Z,97912.72
2022-10-21T14:12:07.057Z,97923.44
2022-10-21T14:14:37.557Z,97921.78
2022-10-21T14:17:15.208Z,97922.19
2022-10-21T14:19:42.083Z,97916.22
2022-10-21T14:22:10.559Z,97927.19
2022-10-21T14:24:44.700Z,97930.53
2022-10-21T14:27:34.200Z,97931.63
2022-10-21T14:30:06.907Z,97931.63
2022-10-21T14:32:34.038Z,97937.78
2022-10-21T14:35:10.012Z,97932.50
2022-10-21T14:37:36.447Z,97935.00
2022-10-21T14:40:20.933Z,97931.63
2022-10-21T14:42:52.385Z,97940.75
2022-10-21T14:45:32.682Z,97946.03
2022-10-21T14:48:11.727Z,97943.25
2022-10-21T14:50:48.271Z,97946.91
2022-10-21T14:53:21.408Z,97943.72
2022-10-21T14:55:52.799Z,97951.34
2022-10-21T14:58:25.152Z,97943.91
2022-10-21T15:00:59.502Z,97943.16
2022-10-21T15:03:47.538Z,97951.69
2022-10-21T15:06:18.479Z,97949.28
2022-10-21T15:08:59.903Z,97947.75
2022-10-21T15:11:26.290Z,97949.63
2022-10-21T15:14:12.758Z,97947.75
2022-10-21T15:16:45.631Z,97943.38
2022-10-21T15:19:25.237Z,97948.13
2022-10-21T15:21:55.003Z,97944.69
2022-10-21T15:24:25.881Z,97939.31
2022-10-21T15:26:53.958Z,97938.47
2022-10-21T15:29:20.354Z,97942.25
2022-10-21T15:31:47.024Z,97942.56
2022-10-21T15:34:16.072Z,97939.22
2022-10-21T15:36:43.976Z,97947.75
2022-10-21T15:39:11.218Z,97943.66
2022-10-21T15:41:38.401Z,97938.88
2022-10-21T15:44:27.118Z,97939.06
2022-10-21T15:46:59.282Z,97936.72
2022-10-21T15:49:30.914Z,97955.50
2022-10-21T15:51:57.307Z,97939.56
2022-10-21T15:54:24.145Z,97937.63
2022-10-21T15:56:54.444Z,97935.63
2022-10-21T15:59:32.359Z,97936.88
2022-10-21T16:01:59.296Z,97939.66
2022-10-21T16:04:27.022Z,97937.47
2022-10-21T16:06:54.323Z,97940.41
2022-10-21T16:09:23.589Z,97936.28
2022-10-21T16:12:00.034Z,97944.38
2022-10-21T16:14:30.107Z,97944.78
2022-10-21T16:17:00.830Z,97943.44
2022-10-21T16:19:28.694Z,97942.53
2022-10-21T16:21:55.680Z,97944.44
2022-10-21T16:24:22.266Z,97934.97
2022-10-21T16:26:49.521Z,97937.66
2022-10-21T16:29:24.688Z,97934.38
2022-10-21T16:31:51.898Z,97931.94
2022-10-21T16:34:19.043Z,97932.88
2022-10-21T16:36:45.519Z,97929.88
2022-10-21T16:39:17.952Z,97931.78
2022-10-21T16:41:44.546Z,97944.75
2022-10-21T16:44:11.071Z,97951.94
2022-10-21T16:46:40.502Z,97954.06
2022-10-21T16:49:13.273Z,97950.16
2022-10-21T16:51:42.522Z,97951.19
2022-10-21T16:54:10.235Z,97946.28
2022-10-21T16:56:36.694Z,97951.69
2022-10-21T16:59:03.364Z,97951.09
2022-10-21T17:01:30.003Z,97951.25
2022-10-21T17:03:56.503Z,97949.72
2022-10-21T17:06:25.439Z,97949.81
2022-10-21T17:08:53.435Z,97955.72
2022-10-21T17:11:23.361Z,97940.50
2022-10-21T17:13:51.922Z,97938.97
2022-10-21T17:16:20.129Z,97944.28
2022-10-21T17:18:47.758Z,97954.81
2022-10-21T17:21:28.529Z,97953.13
2022-10-21T17:23:56.457Z,97943.78
2022-10-21T17:26:23.636Z,97942.75
2022-10-21T17:28:50.531Z,97949.31
2022-10-21T17:31:20.054Z,97949.03
2022-10-21T17:33:47.502Z,97946.97
2022-10-21T17:36:15.718Z,97950.25
2022-10-21T17:38:42.568Z,97942.38
2022-10-21T17:41:10.300Z,97956.06
2022-10-21T17:43:37.608Z,97946.44
2022-10-21T17:46:05.219Z,97940.28
2022-10-21T17:48:32.480Z,97945.53
2022-10-21T17:51:01.142Z,97955.00
2022-10-21T17:53:30.815Z,97953.31
2022-10-21T17:56:03.634Z,97953.97
2022-10-21T17:58:31.449Z,97965.06
2022-10-21T18:00:58.213Z,97955.59
2022-10-21T18:03:28.689Z,97964.31
2022-10-21T18:05:56.240Z,97972.22
2022-10-21T18:08:23.840Z,97972.09
2022-10-21T18:10:58.253Z,97971.16
2022-10-21T18:13:31.093Z,97971.16
2022-10-21T18:16:07.561Z,97973.16
2022-10-21T18:18:35.201Z,97953.06
2022-10-21T18:21:04.382Z,97956.38
2022-10-21T18:23:31.137Z,97950.16
2022-10-21T18:26:03.915Z,97954.53
2022-10-21T18:28:32.357Z,97946.75
2022-10-21T18:30:58.921Z,97951.94
2022-10-21T18:33:26.106Z,97961.41
2022-10-21T18:35:52.558Z,97956.22
2022-10-21T18:38:19.094Z,97954.38
2022-10-21T18:40:56.433Z,97945.84
2022-10-21T18:43:28.833Z,97946.91
2022-10-21T18:45:57.950Z,97953.06
2022-10-21T18:48:24.433Z,97953.16
2022-10-21T18:50:50.885Z,97953.06
2022-10-21T18:53:17.309Z,97949.72
2022-10-21T18:55:43.781Z,97954.28
2022-10-21T18:58:47.636Z,97950.13
2022-10-21T19:03:55.464Z,97939.97
2022-10-21T19:06:28.010Z,97935.78
2022-10-21T19:08:55.138Z,97937.28
2022-10-21T19:11:21.747Z,97941.84
2022-10-21T19:13:48.254Z,97945.44
2022-10-21T19:16:14.699Z,97957.00
2022-10-21T19:18:41.115Z,97959.06
2022-10-21T19:21:07.664Z,97957.38
2022-10-21T19:23:34.197Z,97952.34
2022-10-21T19:26:08.697Z,97942.94
2022-10-21T19:28:36.261Z,97943.66
2022-10-21T19:31:03.479Z,97944.25
2022-10-21T19:33:30.655Z,97957.16
2022-10-21T19:36:01.585Z,97957.22
2022-10-21T19:38:43.176Z,97966.69
2022-10-21T19:41:14.877Z,97967.00
2022-10-21T19:43:41.493Z,97955.72
2022-10-21T19:46:13.806Z,97954.81
2022-10-21T19:48:40.261Z,97963.06
2022-10-21T19:51:07.985Z,97959.53
2022-10-21T19:53:36.071Z,97955.28
2022-10-21T19:56:04.857Z,97961.38
2022-10-21T19:58:31.444Z,97962.28
2022-10-21T20:01:06.908Z,97963.13
2022-10-21T20:03:33.433Z,97966.41
2022-10-21T20:05:59.869Z,97971.59
2022-10-21T20:10:59.725Z,97967.25
2022-10-21T20:13:26.202Z,97967.25
2022-10-21T20:15:52.601Z,97972.41
2022-10-21T20:18:21.238Z,97973.44
2022-10-21T20:20:49.934Z,97978.63
2022-10-21T20:23:16.695Z,97981.47
2022-10-21T20:25:52.312Z,97989.31
2022-10-21T20:28:18.898Z,97998.94
2022-10-21T20:30:45.513Z,98008.47
2022-10-21T20:33:12.526Z,98004.03
2022-10-21T20:35:42.568Z,97993.69
2022-10-21T20:38:10.044Z,97995.38
2022-10-21T20:40:36.767Z,97991.84
2022-10-21T20:43:03.560Z,97986.47
2022-10-21T20:45:30.129Z,97986.50
2022-10-21T20:47:56.676Z,97982.94
2022-10-21T20:50:23.789Z,97986.47
2022-10-21T20:52:50.252Z,97982.94
2022-10-21T20:55:16.878Z,97986.38
2022-10-21T20:57:43.650Z,97987.28
2022-10-21T21:00:10.806Z,97991.66
2022-10-21T21:02:37.540Z,97986.50
2022-10-21T21:05:04.245Z,97991.84
2022-10-21T21:07:30.713Z,97999.63
2022-10-21T21:10:02.771Z,97994.59
2022-10-21T21:12:29.990Z,97990.09
2022-10-21T21:14:56.373Z,97989.47
2022-10-21T21:17:22.807Z,97986.97
2022-10-21T21:19:49.323Z,97986.88
2022-10-21T21:22:15.735Z,97975.84
2022-10-21T21:24:42.498Z,97971.56
2022-10-21T21:27:08.956Z,97970.94
2022-10-21T21:29:35.978Z,97976.25
2022-10-21T21:32:02.417Z,97964.38
2022-10-21T21:34:28.913Z,97971.50
2022-10-21T21:36:55.367Z,97963.53
2022-10-21T21:39:21.811Z,97964.53
2022-10-21T21:41:48.416Z,97972.31
2022-10-21T21:44:14.911Z,97970.84
2022-10-21T21:46:41.319Z,97952.78
2022-10-21T21:49:07.858Z,97941.63
2022-10-21T21:51:36.585Z,97940.88
2022-10-21T21:54:05.067Z,97952.34
2022-10-21T21:56:31.580Z,97961.03
2022-10-21T21:58:58.554Z,97950.53
2022-10-21T22:01:27.827Z,97954.13
2022-10-21T22:03:55.161Z,97952.66
2022-10-21T22:08:51.623Z,97966.19
2022-10-21T22:11:21.390Z,97955.22
2022-10-21T22:13:47.963Z,97954.44
2022-10-21T22:16:16.088Z,97952.63
2022-10-21T22:18:43.432Z,97950.03
2022-10-21T22:21:12.749Z,97950.13
2022-10-21T22:23:39.535Z,97950.13
2022-10-21T22:26:06.800Z,97953.75
2022-10-21T22:28:33.399Z,97962.41
2022-10-21T22:31:06.998Z,97978.22
2022-10-21T22:33:34.160Z,97978.50
2022-10-21T22:36:01.073Z,97982.94
2022-10-21T22:38:29.177Z,97983.16
2022-10-21T22:40:57.690Z,97979.03
2022-10-21T22:43:26.103Z,97977.56
2022-10-21T22:45:55.294Z,97979.50
2022-10-21T22:48:27.758Z,97982.09
2022-10-21T22:50:54.536Z,97979.72
2022-10-21T22:53:21.637Z,97978.09
2022-10-21T22:55:48.322Z,97971.63
2022-10-21T22:58:17.275Z,97973.25
2022-10-21T23:00:43.974Z,97979.38
2022-10-21T23:03:10.630Z,97978.50
2022-10-21T23:05:37.096Z,97970.00
2022-10-21T23:08:03.722Z,97975.03
2022-10-21T23:10:30.198Z,97979.38
2022-10-21T23:12:56.673Z,97981.84
2022-10-21T23:15:23.107Z,97974.06
2022-10-21T23:17:49.520Z,97973.94
2022-10-21T23:20:16.101Z,97978.03
2022-10-21T23:22:42.708Z,97979.50
2022-10-21T23:25:09.589Z,97980.97
2022-10-21T23:27:36.034Z,97973.16
2022-10-21T23:30:02.539Z,97984.09
2022-10-21T23:32:28.945Z,97982.94
2022-10-21T23:34:55.393Z,97982.81
2022-10-21T23:37:21.827Z,97990.41
2022-10-21T23:39:48.284Z,97981.50
2022-10-21T23:42:14.690Z,97985.63
2022-10-21T23:44:41.181Z,97987.25
2022-10-21T23:47:07.590Z,97982.00
2022-10-21T23:49:34.011Z,97986.28
2022-10-21T23:52:00.431Z,97975.03
2022-10-21T23:54:26.943Z,97980.97
2022-10-21T23:56:53.353Z,97981.72
2022-10-21T23:59:21.902Z,97976.41
